Time;durP1;ratioP1;P1;durP2;ratioP2;P2;SDS_P1;SDS_P2;PMS_P1;PMS_P2;Temp;Humidity;BMP_temperature;BMP_pressure;BME280_temperature;BME280_humidity;BME280_pressure;Samples;Min_cycle;Max_cycle;Signal;HPM_P1;HPM_P2
2024/02/06 08:59:35;;;;;;;;;;;;;;;6.80;100.00;99953.41;4891296;29;19975;-83
2024/02/06 09:02:02;;;;;;;;;;;;;;;6.79;100.00;99961.34;4890994;29;19928;-84
2024/02/06 09:04:28;;;;;;;;;;;;;;;6.79;100.00;99963.97;4908532;29;20024;-82
2024/02/06 09:06:53;;;;;;;;;;;;;;;6.84;100.00;99962.94;4907231;29;19923;-81
2024/02/06 09:09:19;;;;;;;;;;;;;;;8.09;100.00;99964.84;4906686;29;19920;-85
2024/02/06 09:11:44;;;;;;;;;;;;;;;7.52;100.00;99957.69;4889730;29;19927;-87
2024/02/06 09:14:09;;;;;;;;;;;;;;;7.34;100.00;99966.94;4906731;29;20791;-84
2024/02/06 09:16:35;;;;;;;;;;;;;;;7.25;100.00;99955.75;4907286;29;19923;-87
2024/02/06 09:19:00;;;;;;;;;;;;;;;7.20;100.00;99957.66;4905208;29;20803;-85
2024/02/06 09:21:25;;;;;;;;;;;;;;;7.18;100.00;99958.59;4907699;29;19930;-85
2024/02/06 09:23:50;;;;;;;;;;;;;;;7.28;100.00;99954.81;4907562;29;19923;-83
2024/02/06 09:26:16;;;;;;;;;;;;;;;8.68;100.00;99952.50;4889233;29;19935;-86
2024/02/06 09:28:42;;;;;;;;;;;;;;;8.23;100.00;99951.22;4905516;29;19930;-82
2024/02/06 09:31:07;;;;;;;;;;;;;;;7.06;100.00;99950.09;4905657;29;19965;-81
2024/02/06 09:33:33;;;;;;;;;;;;;;;6.29;100.00;99954.59;4889506;29;19964;-90
2024/02/06 09:35:58;;;;;;;;;;;;;;;5.98;100.00;99957.91;4906701;29;20390;-83
2024/02/06 09:38:24;;;;;;;;;;;;;;;5.71;100.00;99950.53;4907386;29;19923;-82
2024/02/06 09:40:50;;;;;;;;;;;;;;;5.65;100.00;99956.81;4908218;29;20290;-83
2024/02/06 09:43:15;;;;;;;;;;;;;;;5.47;100.00;99950.13;4906082;29;19983;-82
2024/02/06 09:45:41;;;;;;;;;;;;;;;5.41;100.00;99950.28;4906156;29;20434;-83
2024/02/06 09:48:07;;;;;;;;;;;;;;;5.34;100.00;99930.25;4890331;29;19930;-83
2024/02/06 09:50:32;;;;;;;;;;;;;;;5.31;100.00;99943.44;4906927;29;19919;-85
2024/02/06 09:53:00;;;;;;;;;;;;;;;5.21;100.00;99948.84;4907193;29;20430;-81
2024/02/06 09:55:25;;;;;;;;;;;;;;;5.09;100.00;99949.09;4907244;29;19919;-83
2024/02/06 09:57:51;;;;;;;;;;;;;;;5.09;100.00;99949.09;4905570;29;19957;-82
2024/02/06 10:00:17;;;;;;;;;;;;;;;4.98;100.00;99951.91;4906889;29;19927;-83
2024/02/06 10:02:43;;;;;;;;;;;;;;;4.98;100.00;99943.16;4906695;29;19930;-81
2024/02/06 10:05:15;;;;;;;;;;;;;;;4.94;100.00;99938.84;4907141;29;19927;-81
2024/02/06 10:07:42;;;;;;;;;;;;;;;4.91;100.00;99947.66;4904914;29;20022;-82
2024/02/06 10:10:09;;;;;;;;;;;;;;;4.82;100.00;99935.56;4905877;29;19993;-83
2024/02/06 10:12:35;;;;;;;;;;;;;;;4.76;100.00;99946.16;4904615;29;20423;-81
2024/02/06 10:15:00;;;;;;;;;;;;;;;4.78;100.00;99938.25;4887051;29;19931;-82
2024/02/06 10:17:26;;;;;;;;;;;;;;;4.73;100.00;99935.69;4904957;29;19979;-85
2024/02/06 10:19:51;;;;;;;;;;;;;;;4.66;100.00;99934.94;4906196;29;19927;-83
2024/02/06 10:22:16;;;;;;;;;;;;;;;4.70;100.00;99943.63;4904905;29;19923;-83
2024/02/06 10:24:41;;;;;;;;;;;;;;;4.72;100.00;99941.84;4905606;29;20026;-82
2024/02/06 10:27:07;;;;;;;;;;;;;;;4.63;100.00;99955.13;4902624;29;20039;-80
2024/02/06 10:29:36;;;;;;;;;;;;;;;4.56;100.00;99954.34;4906199;29;20306;-81
2024/02/06 10:32:15;;;;;;;;;;;;;;;4.54;100.00;99959.59;4905524;29;19923;-83
2024/02/06 10:34:41;;;;;;;;;;;;;;;4.55;100.00;99958.72;4888623;29;20396;-83
2024/02/06 10:37:07;;;;;;;;;;;;;;;4.55;100.00;99952.63;4906680;29;19923;-83
2024/02/06 10:39:33;;;;;;;;;;;;;;;4.54;100.00;99956.97;4905548;29;20295;-84
2024/02/06 10:42:00;;;;;;;;;;;;;;;4.48;100.00;99950.97;4903886;29;19945;-82
2024/02/06 10:44:33;;;;;;;;;;;;;;;4.51;100.00;99949.16;4888808;29;19936;-81
2024/02/06 10:46:59;;;;;;;;;;;;;;;4.51;100.00;99956.16;4906021;29;19923;-83
2024/02/06 10:49:24;;;;;;;;;;;;;;;4.41;100.00;99949.34;4907051;29;19972;-82
2024/02/06 10:51:49;;;;;;;;;;;;;;;4.45;100.00;99948.38;4904658;29;19927;-82
2024/02/06 10:54:19;;;;;;;;;;;;;;;4.57;100.00;99949.97;4905688;29;19934;-82
2024/02/06 10:56:50;;;;;;;;;;;;;;;4.40;100.00;99937.97;4903928;29;20833;-83
2024/02/06 10:59:18;;;;;;;;;;;;;;;4.47;100.00;99942.25;4904674;29;19927;-85
2024/02/06 11:01:44;;;;;;;;;;;;;;;4.51;100.00;99936.03;4904931;29;19995;-84
2024/02/06 11:04:10;;;;;;;;;;;;;;;4.46;100.00;99934.38;4905114;29;20398;-83
2024/02/06 11:06:56;;;;;;;;;;;;;;;4.39;100.00;99928.38;4907960;29;19927;-83
2024/02/06 11:09:22;;;;;;;;;;;;;;;4.38;100.00;99923.16;4909633;29;19923;-83
2024/02/06 11:11:48;;;;;;;;;;;;;;;4.28;100.00;99920.66;4908035;29;20386;-83
2024/02/06 11:14:14;;;;;;;;;;;;;;;4.36;100.00;99924.03;4909912;29;19923;-81
2024/02/06 11:16:51;;;;;;;;;;;;;;;4.24;100.00;99925.97;4909919;29;19975;-82
2024/02/06 11:19:20;;;;;;;;;;;;;;;4.29;100.00;99924.13;4907075;29;19966;-85
2024/02/06 11:21:49;;;;;;;;;;;;;;;4.22;100.00;99910.25;4908242;29;19924;-85
2024/02/06 11:24:16;;;;;;;;;;;;;;;4.21;100.00;99920.75;4908912;29;20007;-80
2024/02/06 11:26:43;;;;;;;;;;;;;;;4.25;100.00;99911.97;4908662;29;19920;-82
2024/02/06 11:29:08;;;;;;;;;;;;;;;4.26;100.00;99908.44;4906655;29;19927;-82
2024/02/06 11:31:35;;;;;;;;;;;;;;;4.26;100.00;99908.44;4908981;29;20391;-84
2024/02/06 11:34:09;;;;;;;;;;;;;;;4.18;100.00;99903.34;4907983;29;19934;-82
2024/02/06 11:36:34;;;;;;;;;;;;;;;4.18;100.00;99891.06;4911573;29;19967;-83
2024/02/06 11:39:09;;;;;;;;;;;;;;;4.21;100.00;99899.78;4907480;29;20375;-83
2024/02/06 11:41:35;;;;;;;;;;;;;;;4.14;100.00;99880.66;4907597;29;19920;-81
2024/02/06 11:44:09;;;;;;;;;;;;;;;4.16;100.00;99890.25;4891790;29;20320;-83
2024/02/06 11:46:47;;;;;;;;;;;;;;;4.22;100.00;99870.91;4908897;29;19919;-83
2024/02/06 11:49:13;;;;;;;;;;;;;;;4.29;100.00;99879.53;4909263;29;19934;-82
2024/02/06 11:51:38;;;;;;;;;;;;;;;4.16;100.00;99871.00;4909276;29;19988;-77
2024/02/06 11:54:13;;;;;;;;;;;;;;;4.08;100.00;99857.13;4906282;29;20415;-81
2024/02/06 11:56:41;;;;;;;;;;;;;;;4.10;100.00;99858.88;4905733;29;19962;-82
2024/02/06 11:59:11;;;;;;;;;;;;;;;4.15;100.00;99864.91;4908985;29;19945;-83
2024/02/06 12:01:36;;;;;;;;;;;;;;;4.18;100.00;99856.97;4908972;29;19959;-83
2024/02/06 12:04:04;;;;;;;;;;;;;;;4.06;100.00;99848.44;4908843;29;19963;-82
2024/02/06 12:06:29;;;;;;;;;;;;;;;4.08;100.00;99846.66;4906579;29;19928;-82
2024/02/06 12:09:08;;;;;;;;;;;;;;;4.00;100.00;99854.63;4907456;29;19971;-82
2024/02/06 12:11:43;;;;;;;;;;;;;;;4.03;100.00;99844.09;4907813;29;20807;-82
2024/02/06 12:14:14;;;;;;;;;;;;;;;4.04;100.00;99845.84;4906703;29;20496;-83
2024/02/06 12:16:41;;;;;;;;;;;;;;;4.02;100.00;99842.38;4904706;29;19980;-85
2024/02/06 12:19:06;;;;;;;;;;;;;;;4.04;100.00;99850.19;4908496;29;19931;-83
2024/02/06 12:21:32;;;;;;;;;;;;;;;7.73;100.00;99835.75;4907978;29;19923;-83
2024/02/06 12:24:04;;;;;;;;;;;;;;;7.00;100.00;99823.78;4907087;29;19946;-81
2024/02/06 12:26:30;;;;;;;;;;;;;;;5.25;100.00;99824.44;4907659;29;19919;-83
2024/02/06 12:29:02;;;;;;;;;;;;;;;4.78;100.00;99826.22;4889430;29;19966;-81
2024/02/06 12:31:28;;;;;;;;;;;;;;;4.54;100.00;99817.88;4908136;29;19923;-81
2024/02/06 12:33:53;;;;;;;;;;;;;;;4.39;100.00;99815.56;4908576;29;19930;-80
2024/02/06 12:36:19;;;;;;;;;;;;;;;4.38;100.00;99818.19;4890365;29;20287;-88
2024/02/06 12:38:44;;;;;;;;;;;;;;;4.32;100.00;99813.91;4898434;29;20021;-81
2024/02/06 12:41:09;;;;;;;;;;;;;;;4.27;100.00;99816.59;4907425;29;19927;-81
2024/02/06 12:43:35;;;;;;;;;;;;;;;4.14;100.00;99802.84;4907598;29;19915;-83
2024/02/06 12:46:01;;;;;;;;;;;;;;;4.22;100.00;99794.00;4891019;29;19930;-83
2024/02/06 12:48:26;;;;;;;;;;;;;;;4.13;100.00;99793.25;4907557;29;19919;-83
2024/02/06 12:50:51;;;;;;;;;;;;;;;4.12;100.00;99782.78;4904833;29;19975;-87
2024/02/06 12:53:23;;;;;;;;;;;;;;;4.06;100.00;99778.50;4905923;29;19923;-82
2024/02/06 12:55:52;;;;;;;;;;;;;;;4.00;100.00;99782.09;4907303;29;19927;-82
2024/02/06 12:58:18;;;;;;;;;;;;;;;4.03;100.00;99775.91;4889359;29;19972;-82
2024/02/06 13:00:44;;;;;;;;;;;;;;;4.06;100.00;99760.13;4907995;29;20549;-83
2024/02/06 13:03:14;;;;;;;;;;;;;;;4.10;100.00;99772.31;4906555;29;20034;-83
2024/02/06 13:05:41;;;;;;;;;;;;;;;4.09;100.00;99759.22;4889753;29;19923;-81
2024/02/06 13:08:08;;;;;;;;;;;;;;;4.05;100.00;99752.28;4907928;29;19925;-81
2024/02/06 13:10:33;;;;;;;;;;;;;;;4.10;100.00;99756.59;4906535;29;19923;-82
2024/02/06 13:13:03;;;;;;;;;;;;;;;3.98;100.00;99759.41;4906093;29;19930;-85
2024/02/06 13:15:28;;;;;;;;;;;;;;;3.97;100.00;99762.91;4907365;29;19942;-81
2024/02/06 13:17:57;;;;;;;;;;;;;;;3.90;100.00;99743.78;4906322;29;19923;-82
2024/02/06 13:20:22;;;;;;;;;;;;;;;3.90;100.00;99733.31;4890151;29;19927;-82
2024/02/06 13:22:47;;;;;;;;;;;;;;;3.99;100.00;99748.03;4907896;29;19942;-81
2024/02/06 13:25:12;;;;;;;;;;;;;;;3.96;100.00;99734.97;4906820;29;19923;-79
2024/02/06 13:27:38;;;;;;;;;;;;;;;3.96;100.00;99737.59;4901181;29;20502;-81
2024/02/06 13:30:03;;;;;;;;;;;;;;;3.87;100.00;99735.97;4904907;29;19969;-81
2024/02/06 13:32:28;;;;;;;;;;;;;;;3.92;100.00;99734.13;4907037;29;20809;-83
2024/02/06 13:34:54;;;;;;;;;;;;;;;3.92;100.00;99725.41;4907450;29;19919;-82
2024/02/06 13:37:20;;;;;;;;;;;;;;;3.92;100.00;99714.94;4906696;29;20410;-84
2024/02/06 13:39:45;;;;;;;;;;;;;;;3.84;100.00;99722.06;4905661;29;20006;-84
2024/02/06 13:42:11;;;;;;;;;;;;;;;3.91;100.00;99718.44;4906028;29;20014;-81
2024/02/06 13:44:37;;;;;;;;;;;;;;;3.93;100.00;99712.28;4906720;29;19919;-80
2024/02/06 13:47:02;;;;;;;;;;;;;;;3.88;100.00;99702.75;4897873;29;19927;-82
2024/02/06 13:49:30;;;;;;;;;;;;;;;3.81;100.00;99689.78;4905500;29;19970;-83
2024/02/06 13:51:55;;;;;;;;;;;;;;;3.89;100.00;99687.00;4904588;29;19924;-83
2024/02/06 13:54:20;;;;;;;;;;;;;;;3.82;100.00;99694.09;4906486;29;20390;-84
2024/02/06 13:56:47;;;;;;;;;;;;;;;3.83;100.00;99695.00;4904204;29;20327;-81
2024/02/06 13:59:12;;;;;;;;;;;;;;;3.79;100.00;99688.91;4906814;29;20458;-82
2024/02/06 14:01:37;;;;;;;;;;;;;;;3.75;100.00;99692.50;4906794;29;19971;-83
2024/02/06 14:04:02;;;;;;;;;;;;;;;3.78;100.00;99686.31;4905589;29;19924;-81
2024/02/06 14:06:28;;;;;;;;;;;;;;;3.73;100.00;99689.00;4906605;29;19923;-81
2024/02/06 14:08:55;;;;;;;;;;;;;;;3.76;100.00;99682.88;4907373;29;19927;-84
2024/02/06 14:11:21;;;;;;;;;;;;;;;3.82;100.00;99682.78;4903623;29;19931;-81
2024/02/06 14:13:46;;;;;;;;;;;;;;;3.77;100.00;99679.38;4906397;29;19924;-84
2024/02/06 14:16:12;;;;;;;;;;;;;;;3.75;100.00;99676.78;4906225;29;20050;-82
2024/02/06 14:18:37;;;;;;;;;;;;;;;3.76;100.00;99672.38;4905737;29;19951;-78
2024/02/06 14:21:02;;;;;;;;;;;;;;;3.73;100.00;99667.19;4907431;29;19922;-86
2024/02/06 14:23:27;;;;;;;;;;;;;;;3.74;100.00;99668.94;4886434;29;20354;-83
2024/02/06 14:25:53;;;;;;;;;;;;;;;3.75;100.00;99682.00;4904675;29;19930;-82
2024/02/06 14:28:18;;;;;;;;;;;;;;;3.79;100.00;99667.09;4903642;29;19923;-81
2024/02/06 14:30:43;;;;;;;;;;;;;;;3.77;100.00;99655.78;4896978;29;20398;-81
2024/02/06 14:33:09;;;;;;;;;;;;;;;3.76;100.00;99649.66;4903971;29;19942;-82
2024/02/06 14:35:35;;;;;;;;;;;;;;;3.72;100.00;99650.63;4903186;29;19930;-80
2024/02/06 14:38:00;;;;;;;;;;;;;;;3.75;100.00;99663.66;4904689;29;19927;-87
2024/02/06 14:40:25;;;;;;;;;;;;;;;3.72;100.00;99661.09;4905456;29;19916;-81
2024/02/06 14:42:51;;;;;;;;;;;;;;;3.69;100.00;99660.28;4904087;29;19927;-83
2024/02/06 14:45:16;;;;;;;;;;;;;;;3.75;100.00;99654.91;4904256;29;19942;-82
2024/02/06 14:47:41;;;;;;;;;;;;;;;3.72;100.00;99652.34;4905828;29;20068;-82
2024/02/06 14:50:07;;;;;;;;;;;;;;;3.69;100.00;99640.19;4905158;29;20271;-83
2024/02/06 14:52:32;;;;;;;;;;;;;;;3.65;100.00;99638.50;4905242;29;19966;-82
2024/02/06 14:54:57;;;;;;;;;;;;;;;3.66;100.00;99634.13;4901896;29;19924;-81
2024/02/06 14:57:22;;;;;;;;;;;;;;;3.59;100.00;99631.63;4904531;29;19923;-83
2024/02/06 14:59:48;;;;;;;;;;;;;;;3.60;100.00;99629.84;4904858;29;19962;-83
2024/02/06 15:02:13;;;;;;;;;;;;;;;3.57;100.00;99636.00;4902481;29;19924;-82
2024/02/06 15:04:38;;;;;;;;;;;;;;;3.62;100.00;99636.81;4905539;29;20317;-82
2024/02/06 15:07:04;;;;;;;;;;;;;;;3.63;100.00;99628.03;4903776;29;20470;-81
2024/02/06 15:09:31;;;;;;;;;;;;;;;3.63;100.00;99629.78;4903073;29;19928;-83
2024/02/06 15:11:56;;;;;;;;;;;;;;;3.62;100.00;99635.91;4903126;29;19925;-83
2024/02/06 15:14:22;;;;;;;;;;;;;;;3.58;100.00;99634.25;4904537;29;20377;-83
2024/02/06 15:16:47;;;;;;;;;;;;;;;3.60;100.00;99637.72;4905620;29;19927;-82
2024/02/06 15:19:12;;;;;;;;;;;;;;;3.57;100.00;99625.50;4904588;29;19929;-82
2024/02/06 15:21:38;;;;;;;;;;;;;;;3.54;100.00;99633.44;4906040;29;19955;-81
2024/02/06 15:24:03;;;;;;;;;;;;;;;3.61;100.00;99634.22;4905111;29;19966;-82
2024/02/06 15:26:29;;;;;;;;;;;;;;;3.60;100.00;99630.69;4903275;29;19928;-83
2024/02/06 15:28:55;;;;;;;;;;;;;;;3.56;100.00;99628.19;4904240;29;20019;-83
2024/02/06 15:31:20;;;;;;;;;;;;;;;3.62;100.00;99622.81;4903584;29;20005;-81
2024/02/06 15:33:46;;;;;;;;;;;;;;;3.55;100.00;99621.22;4904008;29;20313;-82
2024/02/06 15:36:11;;;;;;;;;;;;;;;3.56;100.00;99613.31;4903965;29;19923;-86
2024/02/06 15:38:36;;;;;;;;;;;;;;;3.58;100.00;99600.19;4904344;29;19923;-81
2024/02/06 15:41:01;;;;;;;;;;;;;;;3.55;100.00;99597.63;4904269;29;20010;-82
2024/02/06 15:43:27;;;;;;;;;;;;;;;3.59;100.00;99587.06;4904557;29;19959;-85
2024/02/06 15:45:52;;;;;;;;;;;;;;;3.57;100.00;99585.34;4888995;29;19935;-82
2024/02/06 15:48:18;;;;;;;;;;;;;;;3.48;100.00;99583.78;4905781;29;19919;-86
2024/02/06 15:50:43;;;;;;;;;;;;;;;3.53;100.00;99583.69;4906050;29;19963;-82
2024/02/06 15:53:08;;;;;;;;;;;;;;;3.56;100.00;99588.88;4891548;29;19994;-83
2024/02/06 15:55:33;;;;;;;;;;;;;;;3.62;100.00;99573.91;4908781;29;19931;-84
2024/02/06 15:57:59;;;;;;;;;;;;;;;3.58;100.00;99574.84;4906597;29;19923;-83
2024/02/06 16:00:24;;;;;;;;;;;;;;;3.56;100.00;99573.16;4908333;29;19966;-82
2024/02/06 16:02:49;;;;;;;;;;;;;;;3.53;100.00;99565.34;4904852;29;19937;-81
2024/02/06 16:05:16;;;;;;;;;;;;;;;3.61;100.00;99582.66;4907322;29;19967;-83
2024/02/06 16:07:43;;;;;;;;;;;;;;;3.58;100.00;99580.09;4908763;29;19924;-81
2024/02/06 16:10:08;;;;;;;;;;;;;;;3.57;100.00;99572.25;4908189;29;19927;-81
2024/02/06 16:12:34;;;;;;;;;;;;;;;3.58;100.00;99569.59;4905965;29;19931;-81
2024/02/06 16:14:59;;;;;;;;;;;;;;;3.58;100.00;99582.72;4908350;29;20433;-82
2024/02/06 16:17:24;;;;;;;;;;;;;;;3.57;100.00;99567.03;4891580;29;19919;-82
2024/02/06 16:19:49;;;;;;;;;;;;;;;3.55;100.00;99569.66;4908650;29;20018;-82
2024/02/06 16:22:14;;;;;;;;;;;;;;;3.59;100.00;99566.09;4908036;29;19920;-82
2024/02/06 16:24:40;;;;;;;;;;;;;;;3.57;100.00;99564.41;4902707;29;20316;-81
2024/02/06 16:27:06;;;;;;;;;;;;;;;3.57;100.00;99567.88;4904688;29;19951;-83
2024/02/06 16:29:31;;;;;;;;;;;;;;;3.55;100.00;99567.03;4906785;29;20390;-82
2024/02/06 16:31:56;;;;;;;;;;;;;;;3.52;100.00;99571.47;4891401;29;19919;-83
2024/02/06 16:34:21;;;;;;;;;;;;;;;3.54;100.00;99574.94;4906577;29;19923;-82
2024/02/06 16:36:47;;;;;;;;;;;;;;;3.58;100.00;99574.00;4905876;29;19931;-82
2024/02/06 16:39:13;;;;;;;;;;;;;;;3.58;100.00;99567.00;4907054;29;20335;-83
2024/02/06 16:41:39;;;;;;;;;;;;;;;3.55;100.00;99568.81;4905239;29;20291;-82
2024/02/06 16:44:04;;;;;;;;;;;;;;;3.55;100.00;99581.91;4907888;29;19927;-82
2024/02/06 16:46:30;;;;;;;;;;;;;;;3.55;100.00;99576.66;4907307;29;20310;-82
2024/02/06 16:48:56;;;;;;;;;;;;;;;3.56;100.00;99575.78;4889658;29;20047;-83
2024/02/06 16:51:21;;;;;;;;;;;;;;;3.56;100.00;99579.25;4907267;29;19927;-82
2024/02/06 16:53:47;;;;;;;;;;;;;;;3.54;100.00;99583.69;4902077;29;20339;-82
2024/02/06 16:56:12;;;;;;;;;;;;;;;3.50;100.00;99575.88;4888752;29;19927;-82
2024/02/06 16:58:38;;;;;;;;;;;;;;;3.57;100.00;99582.75;4907028;29;19923;-81
2024/02/06 17:01:03;;;;;;;;;;;;;;;3.47;100.00;99575.94;4908264;29;20027;-82
2024/02/06 17:03:29;;;;;;;;;;;;;;;3.45;100.00;99570.72;4890158;29;19920;-81
2024/02/06 17:05:54;;;;;;;;;;;;;;;3.48;100.00;99578.53;4907895;29;19968;-84
2024/02/06 17:08:21;;;;;;;;;;;;;;;3.44;100.00;99575.09;4908478;29;19950;-82
2024/02/06 17:10:46;;;;;;;;;;;;;;;3.49;100.00;99571.53;4898818;29;19945;-81
2024/02/06 17:13:11;;;;;;;;;;;;;;;3.49;100.00;99579.38;4906473;29;20379;-82
2024/02/06 17:15:37;;;;;;;;;;;;;;;3.50;100.00;99571.50;4907488;29;19919;-82
2024/02/06 17:18:02;;;;;;;;;;;;;;;3.47;100.00;99570.69;4908113;29;19931;-82
2024/02/06 17:20:27;;;;;;;;;;;;;;;3.49;100.00;99566.28;4907771;29;20010;-82
2024/02/06 17:22:53;;;;;;;;;;;;;;;3.44;100.00;99569.84;4907522;29;19923;-82
2024/02/06 17:25:20;;;;;;;;;;;;;;;3.48;100.00;99578.53;4907498;29;19975;-82
2024/02/06 17:27:45;;;;;;;;;;;;;;;3.54;100.00;99572.31;4906329;29;20547;-82
2024/02/06 17:30:11;;;;;;;;;;;;;;;3.51;100.00;99582.84;4907749;29;20002;-83
2024/02/06 17:32:36;;;;;;;;;;;;;;;3.57;100.00;99572.25;4907561;29;19919;-82
2024/02/06 17:35:03;;;;;;;;;;;;;;;3.49;100.00;99568.91;4907167;29;19974;-81
2024/02/06 17:37:29;;;;;;;;;;;;;;;3.48;100.00;99573.28;4907317;29;19926;-81
2024/02/06 17:39:54;;;;;;;;;;;;;;;3.56;100.00;99581.03;4890952;29;19923;-84
2024/02/06 17:42:19;;;;;;;;;;;;;;;3.54;100.00;99582.78;4906284;29;20134;-86
2024/02/06 17:44:44;;;;;;;;;;;;;;;3.61;100.00;99594.91;4907572;29;19930;-85
2024/02/06 17:47:10;;;;;;;;;;;;;;;3.56;100.00;99594.13;4890369;29;19954;-82
2024/02/06 17:49:35;;;;;;;;;;;;;;;3.59;100.00;99596.66;4906918;29;19923;-81
2024/02/06 17:52:00;;;;;;;;;;;;;;;3.57;100.00;99599.31;4906955;29;19930;-81
2024/02/06 17:54:25;;;;;;;;;;;;;;;3.60;100.00;99593.16;4897762;29;19923;-81
2024/02/06 17:56:51;;;;;;;;;;;;;;;3.49;100.00;99579.38;4905954;29;20325;-81
2024/02/06 17:59:17;;;;;;;;;;;;;;;3.54;100.00;99572.31;4907394;29;19927;-81
2024/02/06 18:01:45;;;;;;;;;;;;;;;3.56;100.00;99565.31;4897718;29;19919;-81
2024/02/06 18:04:11;;;;;;;;;;;;;;;3.66;100.00;99561.63;4906890;29;19939;-83
2024/02/06 18:06:42;;;;;;;;;;;;;;;3.52;100.00;99572.34;4906613;29;19923;-80
2024/02/06 18:09:18;;;;;;;;;;;;;;;3.54;100.00;99573.19;4906405;29;19955;-81
2024/02/06 18:11:43;;;;;;;;;;;;;;;3.59;100.00;99565.22;4905722;29;19955;-81
2024/02/06 18:14:09;;;;;;;;;;;;;;;3.54;100.00;99560.09;4906657;29;19923;-81
2024/02/06 18:19:26;;;;;;;;;;;;;;;3.59;100.00;99567.84;4906543;29;20359;-81
2024/02/06 18:21:53;;;;;;;;;;;;;;;3.58;100.00;99563.50;4906739;29;19930;-82
2024/02/06 18:24:18;;;;;;;;;;;;;;;3.56;100.00;99560.06;4906689;29;19935;-81
2024/02/06 18:26:43;;;;;;;;;;;;;;;3.60;100.00;99565.19;4905394;29;19919;-79
2024/02/06 18:29:09;;;;;;;;;;;;;;;3.62;100.00;99545.09;4890337;29;19923;-81
2024/02/06 18:31:35;;;;;;;;;;;;;;;3.57;100.00;99557.38;4906622;29;20005;-82
2024/02/06 18:34:01;;;;;;;;;;;;;;;3.65;100.00;99554.63;4906375;29;19920;-79
2024/02/06 18:36:26;;;;;;;;;;;;;;;3.58;100.00;99553.03;4897391;29;19920;-81
2024/02/06 18:38:54;;;;;;;;;;;;;;;3.60;100.00;99543.38;4906457;29;19923;-81
2024/02/06 18:41:23;;;;;;;;;;;;;;;3.61;100.00;99545.13;4904408;29;20319;-82
2024/02/06 18:43:49;;;;;;;;;;;;;;;3.66;100.00;99539.81;4905472;29;20390;-82
2024/02/06 18:46:14;;;;;;;;;;;;;;;3.69;100.00;99539.75;4889386;29;19919;-81
2024/02/06 18:48:39;;;;;;;;;;;;;;;3.59;100.00;99545.16;4897126;29;19929;-82
2024/02/06 18:51:05;;;;;;;;;;;;;;;3.63;100.00;99540.72;4905415;29;20379;-82
2024/02/06 18:53:30;;;;;;;;;;;;;;;3.64;100.00;99534.59;4906601;29;19928;-82
2024/02/06 18:55:55;;;;;;;;;;;;;;;3.68;100.00;99544.09;4905214;29;20022;-83
2024/02/06 18:58:20;;;;;;;;;;;;;;;3.70;100.00;99534.47;4905170;29;19920;-82
2024/02/06 19:00:46;;;;;;;;;;;;;;;3.66;100.00;99534.56;4906289;29;20340;-82
2024/02/06 19:03:11;;;;;;;;;;;;;;;3.66;100.00;99535.41;4905933;29;20328;-83
2024/02/06 19:05:37;;;;;;;;;;;;;;;3.63;100.00;99530.22;4906316;29;20002;-83
2024/02/06 19:08:07;;;;;;;;;;;;;;;3.62;100.00;99528.50;4906249;29;19923;-87
2024/02/06 19:10:32;;;;;;;;;;;;;;;3.61;100.00;99524.16;4905227;29;19920;-82
2024/02/06 19:12:57;;;;;;;;;;;;;;;3.69;100.00;99537.97;4903858;29;19926;-82
2024/02/06 19:15:22;;;;;;;;;;;;;;;3.68;100.00;99525.75;4905063;29;19927;-82
2024/02/06 19:17:48;;;;;;;;;;;;;;;3.66;100.00;99519.69;4904938;29;19919;-81
2024/02/06 19:20:13;;;;;;;;;;;;;;;3.74;100.00;99516.94;4905549;29;20295;-81
2024/02/06 19:22:39;;;;;;;;;;;;;;;3.73;100.00;99526.53;4905104;29;19990;-82
2024/02/06 19:25:04;;;;;;;;;;;;;;;3.75;100.00;99519.53;4904887;29;19924;-81
2024/02/06 19:27:29;;;;;;;;;;;;;;;3.72;100.00;99524.81;4907915;29;19919;-82
2024/02/06 19:29:55;;;;;;;;;;;;;;;3.75;100.00;99521.25;4908994;29;19944;-82
2024/02/06 19:32:20;;;;;;;;;;;;;;;3.68;100.00;99523.13;4908861;29;19926;-81
2024/02/06 19:34:46;;;;;;;;;;;;;;;3.76;100.00;99531.72;4908521;29;20420;-79
2024/02/06 19:37:11;;;;;;;;;;;;;;;3.76;100.00;99529.09;4907655;29;19919;-80
2024/02/06 19:39:37;;;;;;;;;;;;;;;3.81;100.00;99524.66;4908655;29;20367;-81
2024/02/06 19:42:03;;;;;;;;;;;;;;;3.81;100.00;99526.38;4890499;29;19970;-86
2024/02/06 19:44:28;;;;;;;;;;;;;;;3.76;100.00;99528.25;4908666;29;19926;-82
2024/02/06 19:46:53;;;;;;;;;;;;;;;3.80;100.00;99527.31;4909737;29;19923;-82
2024/02/06 19:49:19;;;;;;;;;;;;;;;3.76;100.00;99531.72;4891918;29;19919;-81
2024/02/06 19:51:44;;;;;;;;;;;;;;;3.76;100.00;99536.94;4907966;29;19923;-81
2024/02/06 19:54:10;;;;;;;;;;;;;;;3.80;100.00;99525.53;4908766;29;19925;-82
2024/02/06 19:56:36;;;;;;;;;;;;;;;3.94;100.00;99525.28;4890398;29;20091;-80
2024/02/06 19:59:02;;;;;;;;;;;;;;;3.89;100.00;99521.84;4908363;29;19954;-82
2024/02/06 20:01:27;;;;;;;;;;;;;;;4.34;100.00;99513.06;4908457;29;19923;-84
2024/02/06 20:03:54;;;;;;;;;;;;;;;4.02;100.00;99512.00;4891019;29;19926;-83
2024/02/06 20:06:19;;;;;;;;;;;;;;;3.95;100.00;99505.16;4908449;29;20078;-82
2024/02/06 20:08:45;;;;;;;;;;;;;;;3.93;100.00;99512.19;4908728;29;20418;-81
2024/02/06 20:11:11;;;;;;;;;;;;;;;3.87;100.00;99507.06;4908091;29;19927;-81
2024/02/06 20:13:36;;;;;;;;;;;;;;;3.92;100.00;99505.22;4906631;29;19954;-82
2024/02/06 20:16:03;;;;;;;;;;;;;;;3.93;100.00;99501.72;4908253;29;20025;-81
2024/02/06 20:18:28;;;;;;;;;;;;;;;3.90;100.00;99492.13;4906636;29;19919;-81
2024/02/06 20:20:54;;;;;;;;;;;;;;;3.87;100.00;99492.19;4907688;29;19927;-82
2024/02/06 20:23:19;;;;;;;;;;;;;;;3.98;100.00;99491.97;4907626;29;19955;-82
2024/02/06 20:25:47;;;;;;;;;;;;;;;3.93;100.00;99501.72;4898528;29;19919;-82
2024/02/06 20:28:12;;;;;;;;;;;;;;;3.91;100.00;99493.88;4906618;29;19980;-82
2024/02/06 20:30:39;;;;;;;;;;;;;;;3.94;100.00;99485.06;4907887;29;19954;-83
2024/02/06 20:33:05;;;;;;;;;;;;;;;3.95;100.00;99492.91;4890452;29;19919;-82
2024/02/06 20:35:30;;;;;;;;;;;;;;;3.90;100.00;99492.13;4907836;29;20030;-81
2024/02/06 20:37:55;;;;;;;;;;;;;;;3.91;100.00;99487.75;4905142;29;19926;-82
2024/02/06 20:40:21;;;;;;;;;;;;;;;3.96;100.00;99476.28;4890162;29;20354;-82
2024/02/06 20:42:47;;;;;;;;;;;;;;;3.97;100.00;99485.88;4906789;29;19968;-82
2024/02/06 20:45:12;;;;;;;;;;;;;;;3.94;100.00;99490.31;4907523;29;19927;-81
2024/02/06 20:47:37;;;;;;;;;;;;;;;3.94;100.00;99482.44;4898478;29;19959;-82
2024/02/06 20:50:03;;;;;;;;;;;;;;;3.90;100.00;99486.03;4907572;29;19923;-81
2024/02/06 20:52:28;;;;;;;;;;;;;;;3.92;100.00;99489.47;4907039;29;19969;-81
2024/02/06 20:54:54;;;;;;;;;;;;;;;3.91;100.00;99485.13;4890380;29;19967;-82
2024/02/06 20:57:19;;;;;;;;;;;;;;;3.96;100.00;99475.44;4906316;29;19958;-82
2024/02/06 20:59:44;;;;;;;;;;;;;;;3.97;100.00;99487.63;4907261;29;19927;-85
2024/02/06 21:02:09;;;;;;;;;;;;;;;3.96;100.00;99471.03;4891006;29;20057;-81
2024/02/06 21:04:35;;;;;;;;;;;;;;;4.04;100.00;99476.13;4907652;29;19916;-84
2024/02/06 21:07:00;;;;;;;;;;;;;;;4.00;100.00;99477.06;4906757;29;19927;-84
2024/02/06 21:09:26;;;;;;;;;;;;;;;4.09;100.00;99476.88;4890981;29;19925;-81
2024/02/06 21:11:57;;;;;;;;;;;;;;;4.07;100.00;99468.19;4907097;29;20418;-80
2024/02/06 21:14:22;;;;;;;;;;;;;;;4.05;100.00;99472.59;4907112;29;19923;-81
2024/02/06 21:16:47;;;;;;;;;;;;;;;4.07;100.00;99473.44;4898345;29;20290;-80
2024/02/06 21:19:13;;;;;;;;;;;;;;;4.05;100.00;99475.22;4906424;29;19919;-82
2024/02/06 21:21:38;;;;;;;;;;;;;;;4.11;100.00;99477.72;4907182;29;19971;-81
2024/02/06 21:24:03;;;;;;;;;;;;;;;4.09;100.00;99471.63;4897560;29;19930;-82
2024/02/06 21:26:29;;;;;;;;;;;;;;;4.17;100.00;99474.97;4896182;29;19967;-83
2024/02/06 21:28:54;;;;;;;;;;;;;;;4.16;100.00;99477.59;4906571;29;19927;-81
2024/02/06 21:31:19;;;;;;;;;;;;;;;4.04;100.00;99465.63;4907530;29;19927;-82
2024/02/06 21:33:45;;;;;;;;;;;;;;;4.12;100.00;99470.72;4897404;29;19923;-82
2024/02/06 21:36:12;;;;;;;;;;;;;;;4.09;100.00;99470.78;4905387;29;19994;-82
2024/02/06 21:38:38;;;;;;;;;;;;;;;4.11;100.00;99455.88;4906558;29;19919;-82
2024/02/06 21:41:03;;;;;;;;;;;;;;;4.09;100.00;99455.91;4906747;29;20480;-83
2024/02/06 21:43:29;;;;;;;;;;;;;;;4.19;100.00;99452.16;4905076;29;19951;-84